sensor_id;sensor_type;location;lat;lon;timestamp;pressure;altitude;pressure_sealevel;temperature;humidity
21956;BME280;11142;49.930;8.606;2023-03-14T00:00:38;98147.75;;;11.14;100.00
21956;BME280;11142;49.930;8.606;2023-03-14T00:03:06;98149.16;;;11.08;100.00
21956;BME280;11142;49.930;8.606;2023-03-14T00:05:34;98140.41;;;11.09;100.00
21956;BME280;11142;49.930;8.606;2023-03-14T00:08:05;98141.78;;;11.04;100.00
21956;BME280;11142;49.930;8.606;2023-03-14T00:10:33;98150.41;;;11.04;100.00
21956;BME280;11142;49.930;8.606;2023-03-14T00:13:04;98162.50;;;11.13;100.00
21956;BME280;11142;49.930;8.606;2023-03-14T00:15:33;98157.06;;;11.07;100.00
21956;BME280;11142;49.930;8.606;2023-03-14T00:18:01;98161.47;;;11.06;100.00
21956;BME280;11142;49.930;8.606;2023-03-14T00:20:30;98160.78;;;11.04;100.00
21956;BME280;11142;49.930;8.606;2023-03-14T00:22:58;98158.19;;;11.04;100.00
21956;BME280;11142;49.930;8.606;2023-03-14T00:25:28;98153.09;;;11.12;100.00
21956;BME280;11142;49.930;8.606;2023-03-14T00:27:56;98141.78;;;11.04;100.00
21956;BME280;11142;49.930;8.606;2023-03-14T00:30:24;98141.28;;;11.00;100.00
21956;BME280;11142;49.930;8.606;2023-03-14T00:32:53;98140.63;;;10.98;100.00
21956;BME280;11142;49.930;8.606;2023-03-14T00:35:22;98140.47;;;11.00;100.00
21956;BME280;11142;49.930;8.606;2023-03-14T00:37:52;98141.00;;;11.03;100.00
21956;BME280;11142;49.930;8.606;2023-03-14T00:40:21;98140.94;;;11.13;100.00
21956;BME280;11142;49.930;8.606;2023-03-14T00:42:55;98132.25;;;11.22;100.00
21956;BME280;11142;49.930;8.606;2023-03-14T00:45:25;98125.47;;;11.29;100.00
21956;BME280;11142;49.930;8.606;2023-03-14T00:47:53;98128.44;;;11.34;100.00
21956;BME280;11142;49.930;8.606;2023-03-14T00:50:23;98122.31;;;11.35;100.00
21956;BME280;11142;49.930;8.606;2023-03-14T00:52:52;98114.09;;;11.22;100.00
21956;BME280;11142;49.930;8.606;2023-03-14T00:55:20;98109.28;;;11.09;100.00
21956;BME280;11142;49.930;8.606;2023-03-14T00:57:48;98107.94;;;11.05;100.00
21956;BME280;11142;49.930;8.606;2023-03-14T01:00:18;98121.03;;;11.04;100.00
21956;BME280;11142;49.930;8.606;2023-03-14T01:02:47;98116.97;;;11.01;100.00
21956;BME280;11142;49.930;8.606;2023-03-14T01:05:16;98116.84;;;11.03;100.00
21956;BME280;11142;49.930;8.606;2023-03-14T01:07:44;98129.41;;;10.98;100.00
21956;BME280;11142;49.930;8.606;2023-03-14T01:10:13;98131.06;;;10.99;100.00
21956;BME280;11142;49.930;8.606;2023-03-14T01:12:42;98136.31;;;11.07;100.00
21956;BME280;11142;49.930;8.606;2023-03-14T01:15:10;98139.06;;;11.05;100.00
21956;BME280;11142;49.930;8.606;2023-03-14T01:17:41;98149.16;;;10.91;100.00
21956;BME280;11142;49.930;8.606;2023-03-14T01:20:10;98153.28;;;11.01;100.00
21956;BME280;11142;49.930;8.606;2023-03-14T01:22:40;98149.22;;;11.16;100.00
21956;BME280;11142;49.930;8.606;2023-03-14T01:25:09;98157.44;;;11.30;100.00
21956;BME280;11142;49.930;8.606;2023-03-14T01:27:38;98150.56;;;11.20;100.00
21956;BME280;11142;49.930;8.606;2023-03-14T01:30:08;98143.94;;;11.26;100.00
21956;BME280;11142;49.930;8.606;2023-03-14T01:32:37;98133.56;;;11.26;100.00
21956;BME280;11142;49.930;8.606;2023-03-14T01:35:08;98139.75;;;11.25;100.00
21956;BME280;11142;49.930;8.606;2023-03-14T01:37:36;98128.97;;;11.38;100.00
21956;BME280;11142;49.930;8.606;2023-03-14T01:40:09;98119.00;;;11.51;100.00
21956;BME280;11142;49.930;8.606;2023-03-14T01:42:38;98124.22;;;11.51;100.00
21956;BME280;11142;49.930;8.606;2023-03-14T01:47:52;98101.94;;;11.48;100.00
21956;BME280;11142;49.930;8.606;2023-03-14T01:50:22;98111.66;;;11.46;100.00
21956;BME280;11142;49.930;8.606;2023-03-14T01:52:50;98108.06;;;11.65;100.00
21956;BME280;11142;49.930;8.606;2023-03-14T01:55:21;98100.44;;;11.63;100.00
21956;BME280;11142;49.930;8.606;2023-03-14T01:57:52;98092.03;;;11.69;100.00
21956;BME280;11142;49.930;8.606;2023-03-14T02:00:22;98087.59;;;11.62;100.00
21956;BME280;11142;49.930;8.606;2023-03-14T02:02:54;98084.78;;;11.55;100.00
21956;BME280;11142;49.930;8.606;2023-03-14T02:05:25;98081.22;;;11.56;100.00
21956;BME280;11142;49.930;8.606;2023-03-14T02:08:02;98069.06;;;11.57;100.00
21956;BME280;11142;49.930;8.606;2023-03-14T02:10:40;98076.53;;;11.60;100.00
21956;BME280;11142;49.930;8.606;2023-03-14T02:13:10;98081.94;;;11.66;100.00
21956;BME280;11142;49.930;8.606;2023-03-14T02:16:05;98061.78;;;11.60;100.00
21956;BME280;11142;49.930;8.606;2023-03-14T02:18:42;98065.31;;;11.59;100.00
21956;BME280;11142;49.930;8.606;2023-03-14T02:21:47;98061.16;;;11.66;100.00
21956;BME280;11142;49.930;8.606;2023-03-14T02:24:22;98060.34;;;11.66;100.00
21956;BME280;11142;49.930;8.606;2023-03-14T02:27:10;98044.25;;;11.62;100.00
21956;BME280;11142;49.930;8.606;2023-03-14T02:29:48;98048.41;;;11.55;100.00
21956;BME280;11142;49.930;8.606;2023-03-14T02:32:17;98033.59;;;11.48;100.00
21956;BME280;11142;49.930;8.606;2023-03-14T02:34:46;98040.22;;;11.42;100.00
21956;BME280;11142;49.930;8.606;2023-03-14T02:37:15;98018.72;;;11.32;100.00
21956;BME280;11142;49.930;8.606;2023-03-14T02:39:45;98029.28;;;11.31;100.00
21956;BME280;11142;49.930;8.606;2023-03-14T02:42:18;98031.44;;;11.17;100.00
21956;BME280;11142;49.930;8.606;2023-03-14T02:44:50;98028.44;;;11.30;100.00
21956;BME280;11142;49.930;8.606;2023-03-14T02:47:20;98022.44;;;11.30;100.00
21956;BME280;11142;49.930;8.606;2023-03-14T02:49:51;98014.09;;;11.18;100.00
21956;BME280;11142;49.930;8.606;2023-03-14T02:52:20;98014.19;;;11.08;100.00
21956;BME280;11142;49.930;8.606;2023-03-14T02:54:48;98011.25;;;11.03;100.00
21956;BME280;11142;49.930;8.606;2023-03-14T02:57:18;98019.91;;;10.94;100.00
21956;BME280;11142;49.930;8.606;2023-03-14T02:59:46;98019.47;;;10.99;100.00
21956;BME280;11142;49.930;8.606;2023-03-14T03:02:18;98018.34;;;11.01;100.00
21956;BME280;11142;49.930;8.606;2023-03-14T03:04:46;98008.91;;;11.00;100.00
21956;BME280;11142;49.930;8.606;2023-03-14T03:07:16;98013.31;;;11.00;100.00
21956;BME280;11142;49.930;8.606;2023-03-14T03:09:45;98016.56;;;11.02;100.00
21956;BME280;11142;49.930;8.606;2023-03-14T03:12:15;98021.97;;;11.08;100.00
21956;BME280;11142;49.930;8.606;2023-03-14T03:14:45;98028.91;;;11.26;100.00
21956;BME280;11142;49.930;8.606;2023-03-14T03:17:14;98031.69;;;11.32;100.00
21956;BME280;11142;49.930;8.606;2023-03-14T03:19:43;98021.88;;;11.44;100.00
21956;BME280;11142;49.930;8.606;2023-03-14T03:22:11;98027.31;;;11.58;100.00
21956;BME280;11142;49.930;8.606;2023-03-14T03:24:40;98026.00;;;11.54;100.00
21956;BME280;11142;49.930;8.606;2023-03-14T03:27:08;98028.25;;;11.49;100.00
21956;BME280;11142;49.930;8.606;2023-03-14T03:29:36;98008.09;;;11.43;100.00
21956;BME280;11142;49.930;8.606;2023-03-14T03:32:05;98027.53;;;11.39;100.00
21956;BME280;11142;49.930;8.606;2023-03-14T03:34:33;98016.94;;;11.33;100.00
21956;BME280;11142;49.930;8.606;2023-03-14T03:37:01;98020.13;;;11.44;100.00
21956;BME280;11142;49.930;8.606;2023-03-14T03:39:34;98009.31;;;11.31;100.00
21956;BME280;11142;49.930;8.606;2023-03-14T03:42:03;98007.22;;;11.35;100.00
21956;BME280;11142;49.930;8.606;2023-03-14T03:44:31;97998.41;;;11.28;100.00
21956;BME280;11142;49.930;8.606;2023-03-14T03:47:00;97989.19;;;11.33;100.00
21956;BME280;11142;49.930;8.606;2023-03-14T03:49:30;97983.69;;;11.36;100.00
21956;BME280;11142;49.930;8.606;2023-03-14T03:51:59;97993.88;;;11.55;100.00
21956;BME280;11142;49.930;8.606;2023-03-14T03:54:27;97986.88;;;11.82;100.00
21956;BME280;11142;49.930;8.606;2023-03-14T03:56:59;97991.25;;;11.81;100.00
21956;BME280;11142;49.930;8.606;2023-03-14T03:59:28;97990.56;;;11.71;100.00
21956;BME280;11142;49.930;8.606;2023-03-14T04:01:56;97996.34;;;11.65;100.00
21956;BME280;11142;49.930;8.606;2023-03-14T04:04:25;97985.63;;;11.94;100.00
21956;BME280;11142;49.930;8.606;2023-03-14T04:06:55;97990.81;;;11.94;100.00
21956;BME280;11142;49.930;8.606;2023-03-14T04:09:23;97988.50;;;11.83;100.00
21956;BME280;11142;49.930;8.606;2023-03-14T04:12:17;97980.84;;;11.81;100.00
21956;BME280;11142;49.930;8.606;2023-03-14T04:15:04;97989.50;;;11.90;100.00
21956;BME280;11142;49.930;8.606;2023-03-14T04:17:34;97986.25;;;11.88;100.00
21956;BME280;11142;49.930;8.606;2023-03-14T04:20:02;97996.00;;;11.86;100.00
21956;BME280;11142;49.930;8.606;2023-03-14T04:22:36;97983.00;;;11.86;100.00
21956;BME280;11142;49.930;8.606;2023-03-14T04:25:04;97972.72;;;11.76;100.00
21956;BME280;11142;49.930;8.606;2023-03-14T04:27:37;97976.06;;;11.68;100.00
21956;BME280;11142;49.930;8.606;2023-03-14T04:30:15;97973.28;;;11.62;100.00
21956;BME280;11142;49.930;8.606;2023-03-14T04:32:52;97977.31;;;11.56;100.00
21956;BME280;11142;49.930;8.606;2023-03-14T04:35:23;97959.47;;;11.61;100.00
21956;BME280;11142;49.930;8.606;2023-03-14T04:37:57;97974.03;;;11.54;100.00
21956;BME280;11142;49.930;8.606;2023-03-14T04:40:26;97969.22;;;11.59;100.00
21956;BME280;11142;49.930;8.606;2023-03-14T04:43:00;97958.81;;;11.59;100.00
21956;BME280;11142;49.930;8.606;2023-03-14T04:45:29;97962.44;;;11.66;100.00
21956;BME280;11142;49.930;8.606;2023-03-14T04:48:00;97956.09;;;11.69;100.00
21956;BME280;11142;49.930;8.606;2023-03-14T04:50:29;97961.63;;;11.66;100.00
21956;BME280;11142;49.930;8.606;2023-03-14T04:52:59;97942.28;;;11.60;100.00
21956;BME280;11142;49.930;8.606;2023-03-14T04:55:28;97955.09;;;11.62;100.00
21956;BME280;11142;49.930;8.606;2023-03-14T04:57:56;97946.38;;;11.71;100.00
21956;BME280;11142;49.930;8.606;2023-03-14T05:00:24;97939.69;;;11.60;100.00
21956;BME280;11142;49.930;8.606;2023-03-14T05:03:16;97941.34;;;11.69;100.00
21956;BME280;11142;49.930;8.606;2023-03-14T05:06:03;97951.28;;;11.74;100.00
21956;BME280;11142;49.930;8.606;2023-03-14T05:08:57;97934.50;;;11.68;100.00
21956;BME280;11142;49.930;8.606;2023-03-14T05:11:38;97929.44;;;11.67;100.00
21956;BME280;11142;49.930;8.606;2023-03-14T05:14:31;97918.09;;;11.68;100.00
21956;BME280;11142;49.930;8.606;2023-03-14T05:17:32;97921.88;;;11.73;100.00
21956;BME280;11142;49.930;8.606;2023-03-14T05:20:36;97916.66;;;11.73;100.00
21956;BME280;11142;49.930;8.606;2023-03-14T05:23:23;97916.22;;;11.78;100.00
21956;BME280;11142;49.930;8.606;2023-03-14T05:26:13;97912.47;;;11.73;100.00
21956;BME280;11142;49.930;8.606;2023-03-14T05:29:12;97921.50;;;11.68;100.00
21956;BME280;11142;49.930;8.606;2023-03-14T05:32:04;97916.94;;;11.62;100.00
21956;BME280;11142;49.930;8.606;2023-03-14T05:34:50;97929.28;;;11.60;100.00
21956;BME280;11142;49.930;8.606;2023-03-14T05:37:30;97930.75;;;11.63;100.00
21956;BME280;11142;49.930;8.606;2023-03-14T05:40:16;97936.75;;;11.63;100.00
21956;BME280;11142;49.930;8.606;2023-03-14T05:43:06;97930.13;;;11.69;100.00
21956;BME280;11142;49.930;8.606;2023-03-14T05:45:47;97931.31;;;11.75;100.00
21956;BME280;11142;49.930;8.606;2023-03-14T05:48:48;97933.13;;;11.82;100.00
21956;BME280;11142;49.930;8.606;2023-03-14T05:51:39;97932.72;;;11.69;100.00
21956;BME280;11142;49.930;8.606;2023-03-14T05:54:23;97935.41;;;11.85;100.00
21956;BME280;11142;49.930;8.606;2023-03-14T05:57:11;97934.59;;;11.85;100.00
21956;BME280;11142;49.930;8.606;2023-03-14T06:00:01;97934.28;;;11.88;100.00
21956;BME280;11142;49.930;8.606;2023-03-14T06:02:46;97920.41;;;11.71;100.00
21956;BME280;11142;49.930;8.606;2023-03-14T06:05:22;97923.28;;;11.68;100.00
21956;BME280;11142;49.930;8.606;2023-03-14T06:07:56;97923.47;;;11.66;100.00
21956;BME280;11142;49.930;8.606;2023-03-14T06:10:26;97916.94;;;11.62;100.00
21956;BME280;11142;49.930;8.606;2023-03-14T06:12:54;97921.97;;;11.64;100.00
21956;BME280;11142;49.930;8.606;2023-03-14T06:15:23;97918.91;;;11.60;100.00
21956;BME280;11142;49.930;8.606;2023-03-14T06:17:55;97902.63;;;11.58;100.00
21956;BME280;11142;49.930;8.606;2023-03-14T06:20:25;97903.44;;;11.51;100.00
21956;BME280;11142;49.930;8.606;2023-03-14T06:22:53;97905.22;;;11.50;100.00
21956;BME280;11142;49.930;8.606;2023-03-14T06:25:24;97905.28;;;11.66;100.00
21956;BME280;11142;49.930;8.606;2023-03-14T06:27:52;97900.63;;;11.70;100.00
21956;BME280;11142;49.930;8.606;2023-03-14T06:30:20;97903.00;;;11.63;100.00
21956;BME280;11142;49.930;8.606;2023-03-14T06:32:49;97889.19;;;11.63;100.00
21956;BME280;11142;49.930;8.606;2023-03-14T06:35:20;97893.75;;;11.69;100.00
21956;BME280;11142;49.930;8.606;2023-03-14T06:37:48;97903.69;;;11.73;100.00
21956;BME280;11142;49.930;8.606;2023-03-14T06:40:17;97889.69;;;11.66;100.00
21956;BME280;11142;49.930;8.606;2023-03-14T06:42:50;97887.72;;;11.68;100.00
21956;BME280;11142;49.930;8.606;2023-03-14T06:45:20;97906.22;;;11.65;100.00
21956;BME280;11142;49.930;8.606;2023-03-14T06:47:50;97891.78;;;11.63;100.00
21956;BME280;11142;49.930;8.606;2023-03-14T06:50:22;97878.31;;;11.67;100.00
21956;BME280;11142;49.930;8.606;2023-03-14T06:52:50;97890.00;;;11.63;100.00
21956;BME280;11142;49.930;8.606;2023-03-14T06:55:22;97890.66;;;11.65;100.00
21956;BME280;11142;49.930;8.606;2023-03-14T06:57:50;97894.56;;;11.69;100.00
21956;BME280;11142;49.930;8.606;2023-03-14T07:00:19;97892.00;;;11.78;100.00
21956;BME280;11142;49.930;8.606;2023-03-14T07:02:52;97902.72;;;11.75;100.00
21956;BME280;11142;49.930;8.606;2023-03-14T07:05:30;97903.38;;;11.77;100.00
21956;BME280;11142;49.930;8.606;2023-03-14T07:07:58;97902.72;;;11.75;100.00
21956;BME280;11142;49.930;8.606;2023-03-14T07:10:26;97901.91;;;11.74;100.00
21956;BME280;11142;49.930;8.606;2023-03-14T07:12:55;97898.81;;;11.70;100.00
21956;BME280;11142;49.930;8.606;2023-03-14T07:15:25;97901.41;;;11.70;100.00
21956;BME280;11142;49.930;8.606;2023-03-14T07:17:59;97905.66;;;11.80;100.00
21956;BME280;11142;49.930;8.606;2023-03-14T07:20:28;97904.38;;;11.84;100.00
21956;BME280;11142;49.930;8.606;2023-03-14T07:23:00;97916.09;;;11.96;100.00
21956;BME280;11142;49.930;8.606;2023-03-14T07:25:49;97898.91;;;12.11;100.00
21956;BME280;11142;49.930;8.606;2023-03-14T07:28:23;97909.50;;;12.17;100.00
21956;BME280;11142;49.930;8.606;2023-03-14T07:31:05;97909.13;;;12.12;100.00
21956;BME280;11142;49.930;8.606;2023-03-14T07:33:35;97902.81;;;12.07;100.00
21956;BME280;11142;49.930;8.606;2023-03-14T07:36:04;97908.31;;;12.04;100.00
21956;BME280;11142;49.930;8.606;2023-03-14T07:38:35;97911.06;;;11.94;100.00
21956;BME280;11142;49.930;8.606;2023-03-14T07:41:13;97915.13;;;11.97;100.00
21956;BME280;11142;49.930;8.606;2023-03-14T07:44:01;97907.00;;;12.00;100.00
21956;BME280;11142;49.930;8.606;2023-03-14T07:46:29;97914.69;;;12.25;100.00
21956;BME280;11142;49.930;8.606;2023-03-14T07:48:59;97909.34;;;12.27;100.00
21956;BME280;11142;49.930;8.606;2023-03-14T07:51:27;97907.53;;;12.36;100.00
21956;BME280;11142;49.930;8.606;2023-03-14T07:53:55;97908.53;;;12.43;100.00
21956;BME280;11142;49.930;8.606;2023-03-14T07:56:23;97923.63;;;12.47;100.00
21956;BME280;11142;49.930;8.606;2023-03-14T07:58:51;97919.72;;;12.59;100.00
21956;BME280;11142;49.930;8.606;2023-03-14T08:01:20;97925.59;;;12.53;100.00
21956;BME280;11142;49.930;8.606;2023-03-14T08:03:48;97926.72;;;12.51;100.00
21956;BME280;11142;49.930;8.606;2023-03-14T08:06:17;97925.41;;;12.47;100.00
21956;BME280;11142;49.930;8.606;2023-03-14T08:08:45;97930.16;;;12.51;100.00
21956;BME280;11142;49.930;8.606;2023-03-14T08:11:14;97912.41;;;12.31;100.00
21956;BME280;11142;49.930;8.606;2023-03-14T08:13:42;97927.03;;;12.32;100.00
21956;BME280;11142;49.930;8.606;2023-03-14T08:16:15;97922.34;;;12.51;100.00
21956;BME280;11142;49.930;8.606;2023-03-14T08:18:44;97922.66;;;12.64;100.00
21956;BME280;11142;49.930;8.606;2023-03-14T08:21:12;97908.84;;;12.64;100.00
21956;BME280;11142;49.930;8.606;2023-03-14T08:23:41;97910.75;;;12.78;100.00
21956;BME280;11142;49.930;8.606;2023-03-14T08:26:09;97910.41;;;13.13;100.00
21956;BME280;11142;49.930;8.606;2023-03-14T08:28:37;97911.56;;;13.03;100.00
21956;BME280;11142;49.930;8.606;2023-03-14T08:31:04;97916.63;;;12.80;100.00
21956;BME280;11142;49.930;8.606;2023-03-14T08:33:32;97910.94;;;12.85;100.00
21956;BME280;11142;49.930;8.606;2023-03-14T08:36:00;97926.56;;;12.76;100.00
21956;BME280;11142;49.930;8.606;2023-03-14T08:38:28;97894.63;;;13.15;100.00
21956;BME280;11142;49.930;8.606;2023-03-14T08:40:58;97907.84;;;13.52;100.00
21956;BME280;11142;49.930;8.606;2023-03-14T08:43:26;97912.09;;;13.53;100.00
21956;BME280;11142;49.930;8.606;2023-03-14T08:45:56;97915.41;;;13.70;100.00
21956;BME280;11142;49.930;8.606;2023-03-14T08:48:25;97905.44;;;13.81;100.00
21956;BME280;11142;49.930;8.606;2023-03-14T08:50:53;97921.03;;;13.90;100.00
21956;BME280;11142;49.930;8.606;2023-03-14T08:53:21;97922.03;;;14.42;100.00
21956;BME280;11142;49.930;8.606;2023-03-14T08:55:52;97913.50;;;14.48;100.00
21956;BME280;11142;49.930;8.606;2023-03-14T08:58:21;97918.03;;;14.54;100.00
21956;BME280;11142;49.930;8.606;2023-03-14T09:00:50;97924.31;;;14.82;100.00
21956;BME280;11142;49.930;8.606;2023-03-14T09:03:18;97907.06;;;15.11;100.00
21956;BME280;11142;49.930;8.606;2023-03-14T09:05:46;97933.75;;;15.21;100.00
21956;BME280;11142;49.930;8.606;2023-03-14T09:08:14;97937.97;;;15.36;100.00
21956;BME280;11142;49.930;8.606;2023-03-14T09:10:42;97924.00;;;15.15;100.00
21956;BME280;11142;49.930;8.606;2023-03-14T09:13:10;97915.16;;;14.86;100.00
21956;BME280;11142;49.930;8.606;2023-03-14T09:15:39;97922.06;;;14.79;100.00
21956;BME280;11142;49.930;8.606;2023-03-14T09:18:09;97930.72;;;14.95;100.00
21956;BME280;11142;49.930;8.606;2023-03-14T09:20:39;97937.31;;;15.05;100.00
21956;BME280;11142;49.930;8.606;2023-03-14T09:23:07;97929.44;;;14.90;100.00
21956;BME280;11142;49.930;8.606;2023-03-14T09:25:34;97926.78;;;14.61;100.00
21956;BME280;11142;49.930;8.606;2023-03-14T09:28:02;97927.13;;;14.58;100.00
21956;BME280;11142;49.930;8.606;2023-03-14T09:30:30;97932.91;;;14.68;100.00
21956;BME280;11142;49.930;8.606;2023-03-14T09:33:00;97929.66;;;14.89;100.00
21956;BME280;11142;49.930;8.606;2023-03-14T09:35:28;97928.72;;;14.82;100.00
21956;BME280;11142;49.930;8.606;2023-03-14T09:37:56;97923.53;;;14.59;100.00
21956;BME280;11142;49.930;8.606;2023-03-14T09:40:24;97937.47;;;14.21;100.00
21956;BME280;11142;49.930;8.606;2023-03-14T09:42:52;97932.59;;;14.49;100.00
21956;BME280;11142;49.930;8.606;2023-03-14T09:45:23;97929.91;;;14.34;100.00
21956;BME280;11142;49.930;8.606;2023-03-14T09:47:53;97927.84;;;14.21;100.00
21956;BME280;11142;49.930;8.606;2023-03-14T09:50:30;97938.16;;;14.15;100.00
21956;BME280;11142;49.930;8.606;2023-03-14T09:52:59;97945.63;;;13.95;100.00
21956;BME280;11142;49.930;8.606;2023-03-14T09:55:29;97930.78;;;13.96;100.00
21956;BME280;11142;49.930;8.606;2023-03-14T09:58:00;97931.53;;;13.73;100.00
21956;BME280;11142;49.930;8.606;2023-03-14T10:00:30;97937.28;;;13.61;100.00
21956;BME280;11142;49.930;8.606;2023-03-14T10:03:00;97939.75;;;13.54;100.00
21956;BME280;11142;49.930;8.606;2023-03-14T10:05:36;97928.50;;;13.62;100.00
21956;BME280;11142;49.930;8.606;2023-03-14T10:08:05;97942.97;;;13.64;100.00
21956;BME280;11142;49.930;8.606;2023-03-14T10:10:33;97930.06;;;13.79;100.00
21956;BME280;11142;49.930;8.606;2023-03-14T10:13:05;97920.00;;;13.99;100.00
21956;BME280;11142;49.930;8.606;2023-03-14T10:15:39;97938.56;;;14.34;100.00
21956;BME280;11142;49.930;8.606;2023-03-14T10:18:09;97937.50;;;14.44;100.00
21956;BME280;11142;49.930;8.606;2023-03-14T10:20:40;97934.50;;;14.77;100.00
21956;BME280;11142;49.930;8.606;2023-03-14T10:23:18;97928.16;;;14.49;100.00
21956;BME280;11142;49.930;8.606;2023-03-14T10:25:58;97928.88;;;14.12;100.00
21956;BME280;11142;49.930;8.606;2023-03-14T10:28:28;97929.78;;;13.97;100.00
21956;BME280;11142;49.930;8.606;2023-03-14T10:30:57;97930.53;;;13.82;100.00
21956;BME280;11142;49.930;8.606;2023-03-14T10:33:27;97908.41;;;13.70;100.00
21956;BME280;11142;49.930;8.606;2023-03-14T10:35:58;97920.75;;;13.46;100.00
21956;BME280;11142;49.930;8.606;2023-03-14T10:38:28;97911.69;;;13.64;100.00
21956;BME280;11142;49.930;8.606;2023-03-14T10:40:56;97920.25;;;13.81;100.00
21956;BME280;11142;49.930;8.606;2023-03-14T10:43:26;97917.78;;;13.49;100.00
21956;BME280;11142;49.930;8.606;2023-03-14T10:45:55;97901.50;;;12.59;100.00
21956;BME280;11142;49.930;8.606;2023-03-14T10:48:29;97902.16;;;12.37;100.00
21956;BME280;11142;49.930;8.606;2023-03-14T10:51:04;97901.06;;;12.40;100.00
21956;BME280;11142;49.930;8.606;2023-03-14T10:53:33;97899.25;;;12.32;100.00
21956;BME280;11142;49.930;8.606;2023-03-14T10:56:02;97910.78;;;12.21;100.00
21956;BME280;11142;49.930;8.606;2023-03-14T10:58:32;97898.91;;;12.19;100.00
21956;BME280;11142;49.930;8.606;2023-03-14T11:01:03;97892.91;;;12.35;100.00
21956;BME280;11142;49.930;8.606;2023-03-14T11:03:40;97906.88;;;12.50;100.00
21956;BME280;11142;49.930;8.606;2023-03-14T11:06:12;97886.53;;;12.86;100.00
21956;BME280;11142;49.930;8.606;2023-03-14T11:08:45;97908.97;;;13.11;100.00
21956;BME280;11142;49.930;8.606;2023-03-14T11:11:22;97918.03;;;13.31;100.00
21956;BME280;11142;49.930;8.606;2023-03-14T11:13:54;97910.19;;;13.39;100.00
21956;BME280;11142;49.930;8.606;2023-03-14T11:16:27;97919.63;;;13.32;100.00
21956;BME280;11142;49.930;8.606;2023-03-14T11:19:13;97923.75;;;13.18;100.00
21956;BME280;11142;49.930;8.606;2023-03-14T11:21:48;97922.31;;;12.92;100.00
21956;BME280;11142;49.930;8.606;2023-03-14T11:24:25;97913.88;;;12.41;100.00
21956;BME280;11142;49.930;8.606;2023-03-14T11:26:56;97914.81;;;12.24;100.00
21956;BME280;11142;49.930;8.606;2023-03-14T11:29:29;97912.69;;;12.03;100.00
21956;BME280;11142;49.930;8.606;2023-03-14T11:32:00;97907.81;;;12.00;100.00
21956;BME280;11142;49.930;8.606;2023-03-14T11:34:33;97900.31;;;11.89;100.00
21956;BME280;11142;49.930;8.606;2023-03-14T11:37:05;97905.66;;;11.80;100.00
21956;BME280;11142;49.930;8.606;2023-03-14T11:39:35;97907.28;;;11.81;100.00
21956;BME280;11142;49.930;8.606;2023-03-14T11:42:07;97900.16;;;11.83;100.00
21956;BME280;11142;49.930;8.606;2023-03-14T11:44:39;97904.88;;;11.87;100.00
21956;BME280;11142;49.930;8.606;2023-03-14T11:47:09;97906.22;;;12.15;100.00
21956;BME280;11142;49.930;8.606;2023-03-14T11:49:40;97907.19;;;12.31;100.00
21956;BME280;11142;49.930;8.606;2023-03-14T11:52:15;97917.78;;;12.37;100.00
21956;BME280;11142;49.930;8.606;2023-03-14T11:54:46;97912.91;;;12.26;100.00
21956;BME280;11142;49.930;8.606;2023-03-14T11:57:16;97908.19;;;12.30;100.00
21956;BME280;11142;49.930;8.606;2023-03-14T11:59:47;97927.66;;;12.09;100.00
21956;BME280;11142;49.930;8.606;2023-03-14T12:02:21;97924.91;;;12.11;100.00
21956;BME280;11142;49.930;8.606;2023-03-14T12:04:53;97938.94;;;11.76;100.00
21956;BME280;11142;49.930;8.606;2023-03-14T12:07:25;97972.78;;;11.33;100.00
21956;BME280;11142;49.930;8.606;2023-03-14T12:09:57;97966.09;;;11.22;100.00
21956;BME280;11142;49.930;8.606;2023-03-14T12:12:26;97977.94;;;11.25;100.00
21956;BME280;11142;49.930;8.606;2023-03-14T12:14:56;98009.25;;;11.23;100.00
21956;BME280;11142;49.930;8.606;2023-03-14T12:17:26;98068.69;;;11.08;100.00
21956;BME280;11142;49.930;8.606;2023-03-14T12:20:02;98038.66;;;10.88;100.00
21956;BME280;11142;49.930;8.606;2023-03-14T12:22:36;98078.19;;;10.82;100.00
21956;BME280;11142;49.930;8.606;2023-03-14T12:25:13;98100.19;;;10.60;100.00
21956;BME280;11142;49.930;8.606;2023-03-14T12:27:43;98135.31;;;10.55;100.00
21956;BME280;11142;49.930;8.606;2023-03-14T12:30:16;98137.72;;;10.56;100.00
21956;BME280;11142;49.930;8.606;2023-03-14T12:35:34;98159.00;;;10.87;100.00
21956;BME280;11142;49.930;8.606;2023-03-14T12:38:04;98185.31;;;10.75;100.00
21956;BME280;11142;49.930;8.606;2023-03-14T12:40:33;98158.09;;;10.79;100.00
21956;BME280;11142;49.930;8.606;2023-03-14T12:43:11;98192.97;;;11.29;100.00
21956;BME280;11142;49.930;8.606;2023-03-14T12:46:08;98207.53;;;11.22;100.00
21956;BME280;11142;49.930;8.606;2023-03-14T12:48:37;98214.22;;;11.25;100.00
21956;BME280;11142;49.930;8.606;2023-03-14T12:51:11;98228.16;;;11.94;100.00
21956;BME280;11142;49.930;8.606;2023-03-14T12:56:26;98229.66;;;11.61;100.00
21956;BME280;11142;49.930;8.606;2023-03-14T13:01:45;98266.41;;;11.66;100.00
21956;BME280;11142;49.930;8.606;2023-03-14T13:04:14;98273.09;;;11.87;100.00
21956;BME280;11142;49.930;8.606;2023-03-14T13:06:53;98271.06;;;12.16;100.00
21956;BME280;11142;49.930;8.606;2023-03-14T13:09:36;98277.25;;;11.80;100.00
21956;BME280;11142;49.930;8.606;2023-03-14T13:12:19;98305.31;;;11.31;100.00
21956;BME280;11142;49.930;8.606;2023-03-14T13:14:51;98311.69;;;10.45;100.00
21956;BME280;11142;49.930;8.606;2023-03-14T13:17:22;98323.56;;;10.29;100.00
21956;BME280;11142;49.930;8.606;2023-03-14T13:20:02;98318.66;;;10.26;100.00
21956;BME280;11142;49.930;8.606;2023-03-14T13:22:33;98332.59;;;10.15;100.00
21956;BME280;11142;49.930;8.606;2023-03-14T13:25:05;98366.28;;;10.15;100.00
21956;BME280;11142;49.930;8.606;2023-03-14T13:27:35;98340.47;;;9.94;100.00